Athens Township, Pennsylvania
Current Conditions -  °F | °C
As of 8:07 PM on Wednesday 26 Nov 2014 (Local Time) from KBGM Reporting Station
Haze Haze  
Wind Chill:   Ceiling: 500
Heat Index:   Visibility: 1.7mi
Dew Point: -3°   Wind: 12mph
Humidity: 53%   Direction: 350°N
Pressure: 29.92"   Gusts: NA
Location:  41.9771°N, 76.4144°W
Report Text: KBGM 270107Z 35010KT 1 3/4SM HZ BKN005 OVC017 06/M03 A2992 RMK AO2 T00611028 $
Loading
Personal Weather Stations






























Interactive Weather Map New forecast layout! Learn more

10-Day Weather Forecast

Advertisements
Track Severe Weather on mobile